sensor_id;sensor_type;location;lat;lon;timestamp;P1;durP1;ratioP1;P2;durP2;ratioP2
20241;SDS011;10279;46.388;8.116;2022-12-10T00:00:35;15.97;;;12.17;;
20241;SDS011;10279;46.388;8.116;2022-12-10T00:03:03;16.47;;;11.73;;
20241;SDS011;10279;46.388;8.116;2022-12-10T00:05:32;16.67;;;11.63;;
20241;SDS011;10279;46.388;8.116;2022-12-10T00:08:00;15.90;;;11.17;;
20241;SDS011;10279;46.388;8.116;2022-12-10T00:10:28;15.33;;;11.23;;
20241;SDS011;10279;46.388;8.116;2022-12-10T00:12:55;16.03;;;11.67;;
20241;SDS011;10279;46.388;8.116;2022-12-10T00:15:23;16.83;;;11.33;;
20241;SDS011;10279;46.388;8.116;2022-12-10T00:17:50;18.07;;;12.27;;
20241;SDS011;10279;46.388;8.116;2022-12-10T00:20:17;17.63;;;11.93;;
20241;SDS011;10279;46.388;8.116;2022-12-10T00:22:45;17.70;;;12.60;;
20241;SDS011;10279;46.388;8.116;2022-12-10T00:25:12;17.73;;;12.43;;
20241;SDS011;10279;46.388;8.116;2022-12-10T00:27:39;15.60;;;11.23;;
20241;SDS011;10279;46.388;8.116;2022-12-10T00:30:07;14.33;;;10.17;;
20241;SDS011;10279;46.388;8.116;2022-12-10T00:32:35;14.80;;;11.50;;
20241;SDS011;10279;46.388;8.116;2022-12-10T00:35:03;13.10;;;10.23;;
20241;SDS011;10279;46.388;8.116;2022-12-10T00:37:30;13.67;;;10.00;;
20241;SDS011;10279;46.388;8.116;2022-12-10T00:39:58;12.87;;;9.10;;
20241;SDS011;10279;46.388;8.116;2022-12-10T00:42:26;12.67;;;9.57;;
20241;SDS011;10279;46.388;8.116;2022-12-10T00:44:53;14.33;;;10.67;;
20241;SDS011;10279;46.388;8.116;2022-12-10T00:47:20;15.57;;;10.57;;
20241;SDS011;10279;46.388;8.116;2022-12-10T00:49:47;14.57;;;10.53;;
20241;SDS011;10279;46.388;8.116;2022-12-10T00:52:15;14.90;;;11.03;;
20241;SDS011;10279;46.388;8.116;2022-12-10T00:54:42;17.97;;;12.90;;
20241;SDS011;10279;46.388;8.116;2022-12-10T00:57:10;17.83;;;12.43;;
20241;SDS011;10279;46.388;8.116;2022-12-10T00:59:37;15.73;;;10.77;;
20241;SDS011;10279;46.388;8.116;2022-12-10T01:02:05;14.67;;;10.93;;
20241;SDS011;10279;46.388;8.116;2022-12-10T01:04:32;12.93;;;9.43;;
20241;SDS011;10279;46.388;8.116;2022-12-10T01:07:00;16.47;;;10.97;;
20241;SDS011;10279;46.388;8.116;2022-12-10T01:09:33;15.97;;;11.30;;
20241;SDS011;10279;46.388;8.116;2022-12-10T01:12:01;13.90;;;9.70;;
20241;SDS011;10279;46.388;8.116;2022-12-10T01:14:30;13.43;;;10.03;;
20241;SDS011;10279;46.388;8.116;2022-12-10T01:16:59;14.83;;;10.73;;
20241;SDS011;10279;46.388;8.116;2022-12-10T01:19:29;14.40;;;10.17;;
20241;SDS011;10279;46.388;8.116;2022-12-10T01:21:57;14.93;;;10.63;;
20241;SDS011;10279;46.388;8.116;2022-12-10T01:24:26;17.10;;;11.67;;
20241;SDS011;10279;46.388;8.116;2022-12-10T01:26:53;23.87;;;10.67;;
20241;SDS011;10279;46.388;8.116;2022-12-10T01:29:21;17.53;;;11.30;;
20241;SDS011;10279;46.388;8.116;2022-12-10T01:31:53;94.23;;;15.93;;
20241;SDS011;10279;46.388;8.116;2022-12-10T01:34:20;103.13;;;16.00;;
20241;SDS011;10279;46.388;8.116;2022-12-10T01:36:49;177.40;;;21.00;;
20241;SDS011;10279;46.388;8.116;2022-12-10T01:39:17;28.67;;;12.27;;
20241;SDS011;10279;46.388;8.116;2022-12-10T01:41:46;85.63;;;16.37;;
20241;SDS011;10279;46.388;8.116;2022-12-10T01:46:42;44.87;;;13.40;;
20241;SDS011;10279;46.388;8.116;2022-12-10T01:49:17;178.27;;;22.33;;
20241;SDS011;10279;46.388;8.116;2022-12-10T01:51:46;23.17;;;12.80;;
20241;SDS011;10279;46.388;8.116;2022-12-10T01:54:18;20.37;;;13.50;;
20241;SDS011;10279;46.388;8.116;2022-12-10T01:56:47;29.80;;;12.87;;
20241;SDS011;10279;46.388;8.116;2022-12-10T01:59:17;20.93;;;13.10;;
20241;SDS011;10279;46.388;8.116;2022-12-10T02:01:51;20.70;;;13.63;;
20241;SDS011;10279;46.388;8.116;2022-12-10T02:07:05;21.23;;;13.33;;
20241;SDS011;10279;46.388;8.116;2022-12-10T02:09:38;20.23;;;12.87;;
20241;SDS011;10279;46.388;8.116;2022-12-10T02:17:27;17.97;;;11.97;;
20241;SDS011;10279;46.388;8.116;2022-12-10T02:19:58;18.70;;;12.03;;
20241;SDS011;10279;46.388;8.116;2022-12-10T02:22:30;18.97;;;12.17;;
20241;SDS011;10279;46.388;8.116;2022-12-10T02:24:58;17.77;;;11.77;;
20241;SDS011;10279;46.388;8.116;2022-12-10T02:29:57;17.17;;;11.53;;
20241;SDS011;10279;46.388;8.116;2022-12-10T02:32:26;17.03;;;11.90;;
20241;SDS011;10279;46.388;8.116;2022-12-10T02:34:57;16.27;;;12.17;;
20241;SDS011;10279;46.388;8.116;2022-12-10T02:37:37;18.13;;;12.07;;
20241;SDS011;10279;46.388;8.116;2022-12-10T02:40:07;15.90;;;11.37;;
20241;SDS011;10279;46.388;8.116;2022-12-10T02:42:37;16.37;;;11.27;;
20241;SDS011;10279;46.388;8.116;2022-12-10T02:45:05;18.77;;;11.67;;
20241;SDS011;10279;46.388;8.116;2022-12-10T02:47:34;15.17;;;10.50;;
20241;SDS011;10279;46.388;8.116;2022-12-10T02:50:02;16.60;;;10.83;;
20241;SDS011;10279;46.388;8.116;2022-12-10T02:52:30;13.50;;;10.13;;
20241;SDS011;10279;46.388;8.116;2022-12-10T02:54:57;14.10;;;10.30;;
20241;SDS011;10279;46.388;8.116;2022-12-10T03:00:09;13.90;;;9.37;;
20241;SDS011;10279;46.388;8.116;2022-12-10T03:08:03;14.07;;;9.97;;
20241;SDS011;10279;46.388;8.116;2022-12-10T03:10:36;13.37;;;9.97;;
20241;SDS011;10279;46.388;8.116;2022-12-10T03:13:07;13.67;;;9.90;;
20241;SDS011;10279;46.388;8.116;2022-12-10T03:15:37;12.43;;;9.53;;
20241;SDS011;10279;46.388;8.116;2022-12-10T03:18:06;13.33;;;9.77;;
20241;SDS011;10279;46.388;8.116;2022-12-10T03:20:34;12.47;;;9.17;;
20241;SDS011;10279;46.388;8.116;2022-12-10T03:23:05;13.53;;;9.10;;
20241;SDS011;10279;46.388;8.116;2022-12-10T03:25:34;11.53;;;9.10;;
20241;SDS011;10279;46.388;8.116;2022-12-10T03:28:02;13.43;;;10.10;;
20241;SDS011;10279;46.388;8.116;2022-12-10T03:30:30;17.73;;;11.07;;
20241;SDS011;10279;46.388;8.116;2022-12-10T03:32:59;17.00;;;10.73;;
20241;SDS011;10279;46.388;8.116;2022-12-10T03:35:27;14.50;;;9.33;;
20241;SDS011;10279;46.388;8.116;2022-12-10T03:37:55;15.33;;;9.70;;
20241;SDS011;10279;46.388;8.116;2022-12-10T03:40:23;13.97;;;9.57;;
20241;SDS011;10279;46.388;8.116;2022-12-10T03:42:51;11.90;;;8.70;;
20241;SDS011;10279;46.388;8.116;2022-12-10T03:45:18;9.77;;;7.57;;
20241;SDS011;10279;46.388;8.116;2022-12-10T03:47:46;9.50;;;7.43;;
20241;SDS011;10279;46.388;8.116;2022-12-10T03:50:15;9.50;;;7.70;;
20241;SDS011;10279;46.388;8.116;2022-12-10T03:52:43;9.80;;;7.63;;
20241;SDS011;10279;46.388;8.116;2022-12-10T03:55:10;9.33;;;7.17;;
20241;SDS011;10279;46.388;8.116;2022-12-10T03:57:38;9.00;;;7.20;;
20241;SDS011;10279;46.388;8.116;2022-12-10T04:00:06;9.27;;;7.60;;
20241;SDS011;10279;46.388;8.116;2022-12-10T04:02:34;9.33;;;7.27;;
20241;SDS011;10279;46.388;8.116;2022-12-10T04:05:02;8.93;;;6.90;;
20241;SDS011;10279;46.388;8.116;2022-12-10T04:07:31;8.33;;;6.50;;
20241;SDS011;10279;46.388;8.116;2022-12-10T04:09:58;10.50;;;7.73;;
20241;SDS011;10279;46.388;8.116;2022-12-10T04:12:26;11.73;;;8.67;;
20241;SDS011;10279;46.388;8.116;2022-12-10T04:14:53;12.67;;;9.13;;
20241;SDS011;10279;46.388;8.116;2022-12-10T04:17:39;10.23;;;8.23;;
20241;SDS011;10279;46.388;8.116;2022-12-10T04:20:06;11.57;;;8.40;;
20241;SDS011;10279;46.388;8.116;2022-12-10T04:22:54;10.43;;;7.93;;
20241;SDS011;10279;46.388;8.116;2022-12-10T04:25:40;10.70;;;7.60;;
20241;SDS011;10279;46.388;8.116;2022-12-10T04:28:26;9.70;;;7.17;;
20241;SDS011;10279;46.388;8.116;2022-12-10T04:30:53;9.40;;;7.70;;
20241;SDS011;10279;46.388;8.116;2022-12-10T04:33:21;9.03;;;7.33;;
20241;SDS011;10279;46.388;8.116;2022-12-10T04:35:48;10.33;;;7.53;;
20241;SDS011;10279;46.388;8.116;2022-12-10T04:38:16;11.10;;;8.00;;
20241;SDS011;10279;46.388;8.116;2022-12-10T04:40:43;10.37;;;8.53;;
20241;SDS011;10279;46.388;8.116;2022-12-10T04:43:10;11.13;;;8.00;;
20241;SDS011;10279;46.388;8.116;2022-12-10T04:45:37;11.10;;;7.90;;
20241;SDS011;10279;46.388;8.116;2022-12-10T04:48:05;10.57;;;8.00;;
20241;SDS011;10279;46.388;8.116;2022-12-10T04:50:32;9.87;;;7.53;;
20241;SDS011;10279;46.388;8.116;2022-12-10T04:53:00;10.37;;;8.10;;
20241;SDS011;10279;46.388;8.116;2022-12-10T04:55:27;11.17;;;8.20;;
20241;SDS011;10279;46.388;8.116;2022-12-10T04:57:55;9.90;;;7.53;;
20241;SDS011;10279;46.388;8.116;2022-12-10T05:00:23;11.50;;;8.83;;
20241;SDS011;10279;46.388;8.116;2022-12-10T05:02:51;10.63;;;8.07;;
20241;SDS011;10279;46.388;8.116;2022-12-10T05:05:18;10.40;;;8.03;;
20241;SDS011;10279;46.388;8.116;2022-12-10T05:07:46;10.33;;;7.70;;
20241;SDS011;10279;46.388;8.116;2022-12-10T05:10:13;11.23;;;8.20;;
20241;SDS011;10279;46.388;8.116;2022-12-10T05:12:41;11.40;;;8.33;;
20241;SDS011;10279;46.388;8.116;2022-12-10T05:15:08;11.30;;;7.70;;
20241;SDS011;10279;46.388;8.116;2022-12-10T05:17:36;10.70;;;8.47;;
20241;SDS011;10279;46.388;8.116;2022-12-10T05:20:03;11.97;;;8.53;;
20241;SDS011;10279;46.388;8.116;2022-12-10T05:22:32;11.67;;;8.83;;
20241;SDS011;10279;46.388;8.116;2022-12-10T05:25:18;11.60;;;8.80;;
20241;SDS011;10279;46.388;8.116;2022-12-10T05:27:45;11.43;;;8.50;;
20241;SDS011;10279;46.388;8.116;2022-12-10T05:30:12;10.57;;;7.87;;
20241;SDS011;10279;46.388;8.116;2022-12-10T05:32:40;11.27;;;8.67;;
20241;SDS011;10279;46.388;8.116;2022-12-10T05:35:07;11.17;;;8.70;;
20241;SDS011;10279;46.388;8.116;2022-12-10T05:37:35;10.37;;;8.17;;
20241;SDS011;10279;46.388;8.116;2022-12-10T05:40:02;9.97;;;7.60;;
20241;SDS011;10279;46.388;8.116;2022-12-10T05:42:31;11.50;;;8.57;;
20241;SDS011;10279;46.388;8.116;2022-12-10T05:44:58;11.67;;;8.83;;
20241;SDS011;10279;46.388;8.116;2022-12-10T05:47:27;11.00;;;8.37;;
20241;SDS011;10279;46.388;8.116;2022-12-10T05:49:54;11.67;;;7.97;;
20241;SDS011;10279;46.388;8.116;2022-12-10T05:52:22;26.83;;;9.23;;
20241;SDS011;10279;46.388;8.116;2022-12-10T05:54:49;10.67;;;7.40;;
20241;SDS011;10279;46.388;8.116;2022-12-10T05:57:16;10.60;;;7.87;;
20241;SDS011;10279;46.388;8.116;2022-12-10T05:59:44;12.87;;;7.90;;
20241;SDS011;10279;46.388;8.116;2022-12-10T06:02:11;9.93;;;7.87;;
20241;SDS011;10279;46.388;8.116;2022-12-10T06:04:38;10.57;;;7.50;;
20241;SDS011;10279;46.388;8.116;2022-12-10T06:07:06;15.83;;;7.80;;
20241;SDS011;10279;46.388;8.116;2022-12-10T06:09:36;12.87;;;7.80;;
20241;SDS011;10279;46.388;8.116;2022-12-10T06:12:04;9.97;;;7.60;;
20241;SDS011;10279;46.388;8.116;2022-12-10T06:14:31;10.63;;;8.10;;
20241;SDS011;10279;46.388;8.116;2022-12-10T06:16:59;12.77;;;7.17;;
20241;SDS011;10279;46.388;8.116;2022-12-10T06:19:29;8.87;;;7.03;;
20241;SDS011;10279;46.388;8.116;2022-12-10T06:21:56;10.67;;;7.57;;
20241;SDS011;10279;46.388;8.116;2022-12-10T06:24:24;10.90;;;7.37;;
20241;SDS011;10279;46.388;8.116;2022-12-10T06:26:52;7.80;;;6.37;;
20241;SDS011;10279;46.388;8.116;2022-12-10T06:29:21;7.53;;;6.10;;
20241;SDS011;10279;46.388;8.116;2022-12-10T06:31:48;7.93;;;6.37;;
20241;SDS011;10279;46.388;8.116;2022-12-10T06:34:15;8.07;;;6.83;;
20241;SDS011;10279;46.388;8.116;2022-12-10T06:36:43;7.10;;;6.23;;
20241;SDS011;10279;46.388;8.116;2022-12-10T06:39:10;6.70;;;5.97;;
20241;SDS011;10279;46.388;8.116;2022-12-10T06:41:38;8.00;;;6.20;;
20241;SDS011;10279;46.388;8.116;2022-12-10T06:44:10;6.67;;;5.67;;
20241;SDS011;10279;46.388;8.116;2022-12-10T06:46:38;7.37;;;6.03;;
20241;SDS011;10279;46.388;8.116;2022-12-10T06:49:07;7.33;;;5.93;;
20241;SDS011;10279;46.388;8.116;2022-12-10T06:51:34;6.60;;;5.87;;
20241;SDS011;10279;46.388;8.116;2022-12-10T06:54:02;6.97;;;5.50;;
20241;SDS011;10279;46.388;8.116;2022-12-10T06:56:29;6.97;;;5.40;;
20241;SDS011;10279;46.388;8.116;2022-12-10T06:58:57;6.43;;;4.97;;
20241;SDS011;10279;46.388;8.116;2022-12-10T07:01:24;6.70;;;5.60;;
20241;SDS011;10279;46.388;8.116;2022-12-10T07:03:58;6.13;;;4.93;;
20241;SDS011;10279;46.388;8.116;2022-12-10T07:06:26;7.40;;;5.77;;
20241;SDS011;10279;46.388;8.116;2022-12-10T07:08:57;6.60;;;5.40;;
20241;SDS011;10279;46.388;8.116;2022-12-10T07:11:24;7.67;;;5.60;;
20241;SDS011;10279;46.388;8.116;2022-12-10T07:13:52;5.73;;;4.60;;
20241;SDS011;10279;46.388;8.116;2022-12-10T07:16:21;6.17;;;5.13;;
20241;SDS011;10279;46.388;8.116;2022-12-10T07:18:49;5.70;;;4.97;;
20241;SDS011;10279;46.388;8.116;2022-12-10T07:21:22;6.23;;;5.20;;
20241;SDS011;10279;46.388;8.116;2022-12-10T07:23:50;6.07;;;5.33;;
20241;SDS011;10279;46.388;8.116;2022-12-10T07:26:20;5.27;;;4.77;;
20241;SDS011;10279;46.388;8.116;2022-12-10T07:28:47;7.13;;;5.30;;
20241;SDS011;10279;46.388;8.116;2022-12-10T07:31:19;6.70;;;5.90;;
20241;SDS011;10279;46.388;8.116;2022-12-10T07:33:48;7.60;;;6.13;;
20241;SDS011;10279;46.388;8.116;2022-12-10T07:36:16;7.57;;;5.90;;
20241;SDS011;10279;46.388;8.116;2022-12-10T07:38:43;6.17;;;5.50;;
20241;SDS011;10279;46.388;8.116;2022-12-10T07:41:11;7.20;;;5.73;;
20241;SDS011;10279;46.388;8.116;2022-12-10T07:43:40;6.50;;;5.50;;
20241;SDS011;10279;46.388;8.116;2022-12-10T07:46:11;7.47;;;5.77;;
20241;SDS011;10279;46.388;8.116;2022-12-10T07:48:40;5.13;;;4.40;;
20241;SDS011;10279;46.388;8.116;2022-12-10T07:51:08;6.73;;;5.87;;
20241;SDS011;10279;46.388;8.116;2022-12-10T07:53:35;8.43;;;6.13;;
20241;SDS011;10279;46.388;8.116;2022-12-10T07:56:03;7.53;;;5.70;;
20241;SDS011;10279;46.388;8.116;2022-12-10T07:58:30;6.23;;;5.10;;
20241;SDS011;10279;46.388;8.116;2022-12-10T08:00:58;7.27;;;6.13;;
20241;SDS011;10279;46.388;8.116;2022-12-10T08:03:25;7.40;;;5.47;;
20241;SDS011;10279;46.388;8.116;2022-12-10T08:08:29;5.60;;;5.00;;
20241;SDS011;10279;46.388;8.116;2022-12-10T08:11:01;5.20;;;4.50;;
20241;SDS011;10279;46.388;8.116;2022-12-10T08:13:28;5.60;;;4.33;;
20241;SDS011;10279;46.388;8.116;2022-12-10T08:16:02;6.23;;;5.00;;
20241;SDS011;10279;46.388;8.116;2022-12-10T08:18:30;5.17;;;4.33;;
20241;SDS011;10279;46.388;8.116;2022-12-10T08:20:58;5.90;;;4.77;;
20241;SDS011;10279;46.388;8.116;2022-12-10T08:23:32;5.67;;;4.47;;
20241;SDS011;10279;46.388;8.116;2022-12-10T08:26:03;4.23;;;3.83;;
20241;SDS011;10279;46.388;8.116;2022-12-10T08:28:31;5.17;;;4.53;;
20241;SDS011;10279;46.388;8.116;2022-12-10T08:30:58;5.90;;;4.70;;
20241;SDS011;10279;46.388;8.116;2022-12-10T08:33:26;4.77;;;4.37;;
20241;SDS011;10279;46.388;8.116;2022-12-10T08:35:56;6.47;;;5.27;;
20241;SDS011;10279;46.388;8.116;2022-12-10T08:38:25;5.90;;;4.60;;
20241;SDS011;10279;46.388;8.116;2022-12-10T08:40:52;6.37;;;4.70;;
20241;SDS011;10279;46.388;8.116;2022-12-10T08:43:20;5.10;;;4.40;;
20241;SDS011;10279;46.388;8.116;2022-12-10T08:45:47;6.37;;;5.27;;
20241;SDS011;10279;46.388;8.116;2022-12-10T08:48:15;6.83;;;5.20;;
20241;SDS011;10279;46.388;8.116;2022-12-10T08:50:42;7.30;;;5.67;;
20241;SDS011;10279;46.388;8.116;2022-12-10T08:53:10;7.70;;;5.63;;
20241;SDS011;10279;46.388;8.116;2022-12-10T08:55:38;6.27;;;5.17;;
20241;SDS011;10279;46.388;8.116;2022-12-10T08:58:14;7.83;;;5.27;;
20241;SDS011;10279;46.388;8.116;2022-12-10T09:00:41;5.33;;;4.70;;
20241;SDS011;10279;46.388;8.116;2022-12-10T09:03:08;6.63;;;5.50;;
20241;SDS011;10279;46.388;8.116;2022-12-10T09:05:36;5.87;;;4.70;;
20241;SDS011;10279;46.388;8.116;2022-12-10T09:08:04;5.60;;;4.50;;
20241;SDS011;10279;46.388;8.116;2022-12-10T09:10:31;6.30;;;5.17;;
20241;SDS011;10279;46.388;8.116;2022-12-10T09:12:59;5.67;;;4.30;;
20241;SDS011;10279;46.388;8.116;2022-12-10T09:15:28;4.83;;;3.73;;
20241;SDS011;10279;46.388;8.116;2022-12-10T09:17:56;4.37;;;3.97;;
20241;SDS011;10279;46.388;8.116;2022-12-10T09:20:23;4.77;;;3.93;;
20241;SDS011;10279;46.388;8.116;2022-12-10T09:22:51;5.23;;;4.37;;
20241;SDS011;10279;46.388;8.116;2022-12-10T09:25:18;5.63;;;4.20;;
20241;SDS011;10279;46.388;8.116;2022-12-10T09:27:48;5.60;;;4.27;;
20241;SDS011;10279;46.388;8.116;2022-12-10T09:30:15;5.67;;;4.27;;
20241;SDS011;10279;46.388;8.116;2022-12-10T09:32:43;9.50;;;4.67;;
20241;SDS011;10279;46.388;8.116;2022-12-10T09:35:10;6.23;;;4.00;;
20241;SDS011;10279;46.388;8.116;2022-12-10T09:37:38;3.90;;;3.37;;
20241;SDS011;10279;46.388;8.116;2022-12-10T09:40:05;4.43;;;3.83;;
20241;SDS011;10279;46.388;8.116;2022-12-10T09:45:10;4.37;;;3.73;;
20241;SDS011;10279;46.388;8.116;2022-12-10T09:47:42;5.47;;;3.70;;
20241;SDS011;10279;46.388;8.116;2022-12-10T09:52:42;4.97;;;4.50;;
20241;SDS011;10279;46.388;8.116;2022-12-10T09:55:13;5.97;;;5.37;;
20241;SDS011;10279;46.388;8.116;2022-12-10T09:57:41;6.23;;;5.17;;
20241;SDS011;10279;46.388;8.116;2022-12-10T10:02:56;6.10;;;5.00;;
20241;SDS011;10279;46.388;8.116;2022-12-10T10:06:09;6.40;;;5.53;;
20241;SDS011;10279;46.388;8.116;2022-12-10T10:10:51;5.03;;;4.53;;
20241;SDS011;10279;46.388;8.116;2022-12-10T10:15:52;5.17;;;3.93;;
20241;SDS011;10279;46.388;8.116;2022-12-10T10:20:52;4.30;;;3.80;;
20241;SDS011;10279;46.388;8.116;2022-12-10T10:23:20;4.73;;;4.10;;
20241;SDS011;10279;46.388;8.116;2022-12-10T10:25:47;4.23;;;3.80;;
20241;SDS011;10279;46.388;8.116;2022-12-10T10:28:18;3.23;;;2.93;;
20241;SDS011;10279;46.388;8.116;2022-12-10T10:30:45;3.67;;;2.93;;
20241;SDS011;10279;46.388;8.116;2022-12-10T10:33:14;4.13;;;3.23;;
20241;SDS011;10279;46.388;8.116;2022-12-10T10:35:43;3.30;;;3.00;;
20241;SDS011;10279;46.388;8.116;2022-12-10T10:38:19;3.60;;;3.00;;
20241;SDS011;10279;46.388;8.116;2022-12-10T10:41:05;3.50;;;3.00;;
20241;SDS011;10279;46.388;8.116;2022-12-10T10:43:39;3.70;;;3.00;;
20241;SDS011;10279;46.388;8.116;2022-12-10T10:46:15;4.10;;;3.50;;
20241;SDS011;10279;46.388;8.116;2022-12-10T10:48:43;5.33;;;3.53;;
20241;SDS011;10279;46.388;8.116;2022-12-10T10:56:10;6.70;;;5.00;;
20241;SDS011;10279;46.388;8.116;2022-12-10T10:58:56;5.67;;;4.40;;
20241;SDS011;10279;46.388;8.116;2022-12-10T11:01:25;5.57;;;4.30;;
20241;SDS011;10279;46.388;8.116;2022-12-10T11:03:54;4.50;;;3.90;;
20241;SDS011;10279;46.388;8.116;2022-12-10T11:06:22;5.20;;;4.50;;
20241;SDS011;10279;46.388;8.116;2022-12-10T11:08:50;4.03;;;3.57;;
20241;SDS011;10279;46.388;8.116;2022-12-10T11:11:19;4.93;;;3.97;;
20241;SDS011;10279;46.388;8.116;2022-12-10T11:13:47;10.00;;;5.53;;
20241;SDS011;10279;46.388;8.116;2022-12-10T11:18:51;7.30;;;5.23;;
20241;SDS011;10279;46.388;8.116;2022-12-10T11:21:19;6.63;;;5.03;;
20241;SDS011;10279;46.388;8.116;2022-12-10T11:23:52;8.03;;;5.37;;
20241;SDS011;10279;46.388;8.116;2022-12-10T11:28:54;10.40;;;6.07;;
20241;SDS011;10279;46.388;8.116;2022-12-10T11:34:02;12.57;;;6.30;;
20241;SDS011;10279;46.388;8.116;2022-12-10T11:51:50;6.40;;;4.67;;
20241;SDS011;10279;46.388;8.116;2022-12-10T11:57:09;23.73;;;6.17;;
20241;SDS011;10279;46.388;8.116;2022-12-10T12:12:54;5.53;;;4.47;;
20241;SDS011;10279;46.388;8.116;2022-12-10T12:17:59;4.70;;;3.60;;
20241;SDS011;10279;46.388;8.116;2022-12-10T12:20:29;4.80;;;3.60;;
20241;SDS011;10279;46.388;8.116;2022-12-10T12:22:59;4.80;;;3.77;;
20241;SDS011;10279;46.388;8.116;2022-12-10T12:25:34;6.63;;;4.83;;
20241;SDS011;10279;46.388;8.116;2022-12-10T12:28:05;6.20;;;4.03;;
20241;SDS011;10279;46.388;8.116;2022-12-10T12:30:33;9.03;;;4.90;;
20241;SDS011;10279;46.388;8.116;2022-12-10T12:35:49;10.20;;;4.77;;
20241;SDS011;10279;46.388;8.116;2022-12-10T12:38:21;5.00;;;3.97;;
20241;SDS011;10279;46.388;8.116;2022-12-10T12:40:56;5.17;;;3.73;;
20241;SDS011;10279;46.388;8.116;2022-12-10T12:43:47;8.80;;;4.13;;
20241;SDS011;10279;46.388;8.116;2022-12-10T12:46:20;6.77;;;4.53;;
20241;SDS011;10279;46.388;8.116;2022-12-10T12:48:57;4.77;;;3.47;;
20241;SDS011;10279;46.388;8.116;2022-12-10T12:53:56;6.27;;;4.23;;
20241;SDS011;10279;46.388;8.116;2022-12-10T13:04:00;6.20;;;4.33;;
20241;SDS011;10279;46.388;8.116;2022-12-10T13:06:30;5.30;;;3.70;;
20241;SDS011;10279;46.388;8.116;2022-12-10T13:19:30;4.70;;;3.87;;
20241;SDS011;10279;46.388;8.116;2022-12-10T13:22:02;5.63;;;4.10;;
20241;SDS011;10279;46.388;8.116;2022-12-10T13:32:20;4.97;;;3.73;;
20241;SDS011;10279;46.388;8.116;2022-12-10T13:35:25;16.27;;;5.83;;
20241;SDS011;10279;46.388;8.116;2022-12-10T13:40:36;5.37;;;3.80;;
20241;SDS011;10279;46.388;8.116;2022-12-10T13:48:51;6.30;;;4.57;;
20241;SDS011;10279;46.388;8.116;2022-12-10T13:54:12;5.83;;;4.53;;
20241;SDS011;10279;46.388;8.116;2022-12-10T14:02:11;9.63;;;5.27;;
20241;SDS011;10279;46.388;8.116;2022-12-10T14:05:05;8.73;;;5.00;;
20241;SDS011;10279;46.388;8.116;2022-12-10T14:07:35;4.93;;;4.40;;
20241;SDS011;10279;46.388;8.116;2022-12-10T14:10:02;5.40;;;4.10;;
20241;SDS011;10279;46.388;8.116;2022-12-10T14:12:33;4.90;;;4.00;;
20241;SDS011;10279;46.388;8.116;2022-12-10T14:15:06;7.67;;;4.07;;
20241;SDS011;10279;46.388;8.116;2022-12-10T14:17:36;7.07;;;4.50;;
20241;SDS011;10279;46.388;8.116;2022-12-10T14:20:05;7.30;;;4.80;;
20241;SDS011;10279;46.388;8.116;2022-12-10T14:22:38;10.03;;;5.57;;
20241;SDS011;10279;46.388;8.116;2022-12-10T14:25:10;5.10;;;4.50;;
20241;SDS011;10279;46.388;8.116;2022-12-10T14:27:41;7.20;;;4.77;;
20241;SDS011;10279;46.388;8.116;2022-12-10T14:32:45;7.93;;;5.17;;
20241;SDS011;10279;46.388;8.116;2022-12-10T14:35:14;8.30;;;5.47;;
20241;SDS011;10279;46.388;8.116;2022-12-10T14:37:50;8.87;;;5.73;;
20241;SDS011;10279;46.388;8.116;2022-12-10T14:43:09;6.27;;;4.67;;
20241;SDS011;10279;46.388;8.116;2022-12-10T14:45:59;7.33;;;5.40;;
20241;SDS011;10279;46.388;8.116;2022-12-10T14:48:25;7.50;;;5.57;;
20241;SDS011;10279;46.388;8.116;2022-12-10T14:50:53;8.07;;;5.27;;
20241;SDS011;10279;46.388;8.116;2022-12-10T14:53:24;6.10;;;5.10;;
20241;SDS011;10279;46.388;8.116;2022-12-10T14:55:59;6.47;;;5.27;;
20241;SDS011;10279;46.388;8.116;2022-12-10T14:58:29;6.53;;;5.17;;
20241;SDS011;10279;46.388;8.116;2022-12-10T15:01:09;7.90;;;6.20;;
20241;SDS011;10279;46.388;8.116;2022-12-10T15:03:46;7.70;;;5.93;;
20241;SDS011;10279;46.388;8.116;2022-12-10T15:06:17;7.07;;;5.47;;
20241;SDS011;10279;46.388;8.116;2022-12-10T15:08:46;7.50;;;5.80;;
20241;SDS011;10279;46.388;8.116;2022-12-10T15:11:17;7.67;;;5.23;;
20241;SDS011;10279;46.388;8.116;2022-12-10T15:13:48;7.23;;;5.57;;
20241;SDS011;10279;46.388;8.116;2022-12-10T15:16:27;6.07;;;4.83;;
20241;SDS011;10279;46.388;8.116;2022-12-10T15:18:55;6.10;;;4.90;;
20241;SDS011;10279;46.388;8.116;2022-12-10T15:21:33;5.07;;;4.27;;
20241;SDS011;10279;46.388;8.116;2022-12-10T15:24:11;5.87;;;4.47;;
20241;SDS011;10279;46.388;8.116;2022-12-10T15:26:44;5.53;;;4.30;;
20241;SDS011;10279;46.388;8.116;2022-12-10T15:32:00;7.30;;;5.47;;
20241;SDS011;10279;46.388;8.116;2022-12-10T15:34:28;8.40;;;5.40;;
20241;SDS011;10279;46.388;8.116;2022-12-10T15:36:59;6.47;;;5.10;;
20241;SDS011;10279;46.388;8.116;2022-12-10T15:39:32;7.10;;;5.10;;
20241;SDS011;10279;46.388;8.116;2022-12-10T15:42:04;7.10;;;5.30;;
20241;SDS011;10279;46.388;8.116;2022-12-10T15:44:36;5.90;;;5.00;;
20241;SDS011;10279;46.388;8.116;2022-12-10T15:49:35;5.23;;;4.53;;
20241;SDS011;10279;46.388;8.116;2022-12-10T15:52:03;7.27;;;5.40;;
20241;SDS011;10279;46.388;8.116;2022-12-10T15:54:37;4.53;;;3.97;;
20241;SDS011;10279;46.388;8.116;2022-12-10T15:57:12;4.20;;;3.80;;
20241;SDS011;10279;46.388;8.116;2022-12-10T15:59:43;3.83;;;3.37;;
20241;SDS011;10279;46.388;8.116;2022-12-10T16:04:41;6.20;;;3.97;;
20241;SDS011;10279;46.388;8.116;2022-12-10T16:07:08;7.23;;;4.23;;
20241;SDS011;10279;46.388;8.116;2022-12-10T16:09:36;4.63;;;3.60;;
20241;SDS011;10279;46.388;8.116;2022-12-10T16:12:03;5.07;;;3.87;;
20241;SDS011;10279;46.388;8.116;2022-12-10T16:14:31;5.30;;;3.73;;
20241;SDS011;10279;46.388;8.116;2022-12-10T16:16:58;5.60;;;3.97;;
20241;SDS011;10279;46.388;8.116;2022-12-10T16:19:26;4.77;;;4.10;;
20241;SDS011;10279;46.388;8.116;2022-12-10T16:21:53;5.30;;;3.80;;
20241;SDS011;10279;46.388;8.116;2022-12-10T16:24:20;5.53;;;4.53;;
20241;SDS011;10279;46.388;8.116;2022-12-10T16:26:48;4.73;;;3.87;;
20241;SDS011;10279;46.388;8.116;2022-12-10T16:29:18;6.13;;;4.10;;
20241;SDS011;10279;46.388;8.116;2022-12-10T16:31:47;5.53;;;3.93;;
20241;SDS011;10279;46.388;8.116;2022-12-10T16:34:15;6.30;;;4.17;;
20241;SDS011;10279;46.388;8.116;2022-12-10T16:36:42;4.50;;;3.90;;
20241;SDS011;10279;46.388;8.116;2022-12-10T16:39:09;5.43;;;4.17;;
20241;SDS011;10279;46.388;8.116;2022-12-10T16:41:38;4.67;;;3.87;;
20241;SDS011;10279;46.388;8.116;2022-12-10T16:44:05;5.03;;;4.43;;
20241;SDS011;10279;46.388;8.116;2022-12-10T16:46:33;4.23;;;3.83;;
20241;SDS011;10279;46.388;8.116;2022-12-10T16:49:00;6.77;;;4.57;;
20241;SDS011;10279;46.388;8.116;2022-12-10T16:51:28;7.27;;;5.17;;
20241;SDS011;10279;46.388;8.116;2022-12-10T16:53:57;5.93;;;4.47;;
20241;SDS011;10279;46.388;8.116;2022-12-10T16:56:24;8.00;;;5.37;;
20241;SDS011;10279;46.388;8.116;2022-12-10T16:58:51;6.17;;;4.87;;
20241;SDS011;10279;46.388;8.116;2022-12-10T17:01:20;5.67;;;4.77;;
20241;SDS011;10279;46.388;8.116;2022-12-10T17:03:49;8.03;;;5.57;;
20241;SDS011;10279;46.388;8.116;2022-12-10T17:06:17;6.47;;;5.00;;
20241;SDS011;10279;46.388;8.116;2022-12-10T17:08:45;7.63;;;5.53;;
20241;SDS011;10279;46.388;8.116;2022-12-10T17:11:19;6.20;;;4.80;;
20241;SDS011;10279;46.388;8.116;2022-12-10T17:14:09;7.10;;;5.20;;
20241;SDS011;10279;46.388;8.116;2022-12-10T17:16:37;7.70;;;5.40;;
20241;SDS011;10279;46.388;8.116;2022-12-10T17:19:05;5.77;;;4.80;;
20241;SDS011;10279;46.388;8.116;2022-12-10T17:21:33;5.80;;;5.10;;